Time;durP1;ratioP1;P1;durP2;ratioP2;P2;SDS_P1;SDS_P2;PMS_P1;PMS_P2;Temp;Humidity;BMP_temperature;BMP_pressure;BME280_temperature;BME280_humidity;BME280_pressure;Samples;Min_cycle;Max_cycle;Signal;HPM_P1;HPM_P2
2022/10/03 00:00:28;;;;;;;;;;;7.20;99.90;;;;;;5104112;28;20278;-74
2022/10/03 00:03:12;;;;;;;;;;;7.10;99.90;;;;;;5093957;28;19916;-74
2022/10/03 00:05:48;;;;;;;;;;;7.10;99.90;;;;;;5075370;28;20298;-74
2022/10/03 00:08:14;;;;;;;;;;;7.10;99.90;;;;;;5099072;28;19980;-74
2022/10/03 00:10:59;;;;;;;;;;;7.10;99.90;;;;;;5081761;28;19920;-74
2022/10/03 00:13:39;;;;;;;;;;;7.10;99.90;;;;;;5101364;28;21238;-74
2022/10/03 00:16:05;;;;;;;;;;;7.10;99.90;;;;;;5084858;28;20012;-74
2022/10/03 00:18:38;;;;;;;;;;;7.10;99.90;;;;;;5096008;28;19954;-74
2022/10/03 00:21:07;;;;;;;;;;;7.10;99.90;;;;;;5102238;28;20304;-74
2022/10/03 00:23:35;;;;;;;;;;;7.10;99.90;;;;;;5101514;28;19916;-73
2022/10/03 00:26:26;;;;;;;;;;;7.00;99.90;;;;;;5079462;28;20441;-73
2022/10/03 00:28:59;;;;;;;;;;;7.00;99.90;;;;;;5099697;28;19916;-74
2022/10/03 00:31:34;;;;;;;;;;;7.00;99.90;;;;;;5082392;28;19916;-73
2022/10/03 00:34:19;;;;;;;;;;;7.00;99.90;;;;;;5098545;28;19959;-74
2022/10/03 00:36:59;;;;;;;;;;;7.00;99.90;;;;;;5101908;28;19916;-74
2022/10/03 00:39:27;;;;;;;;;;;7.10;99.90;;;;;;5099060;28;20389;-74
2022/10/03 00:42:06;;;;;;;;;;;7.20;99.90;;;;;;5092165;28;20011;-74
2022/10/03 00:44:46;;;;;;;;;;;7.30;99.90;;;;;;5101599;28;19935;-74
2022/10/03 00:47:18;;;;;;;;;;;7.30;99.90;;;;;;5101981;28;19930;-74
2022/10/03 00:49:59;;;;;;;;;;;7.30;99.90;;;;;;5102545;28;19916;-74
2022/10/03 00:52:33;;;;;;;;;;;7.30;99.90;;;;;;5081712;28;19955;-74
2022/10/03 00:54:59;;;;;;;;;;;7.30;99.90;;;;;;5098945;28;19966;-73
2022/10/03 00:57:45;;;;;;;;;;;7.30;99.90;;;;;;5072243;28;19947;-74
2022/10/03 01:00:29;;;;;;;;;;;7.20;99.90;;;;;;5085707;27;20721;-73
2022/10/03 01:03:01;;;;;;;;;;;7.20;99.90;;;;;;5100144;28;20002;-74
2022/10/03 01:05:34;;;;;;;;;;;7.20;99.90;;;;;;5078635;28;19916;-74
2022/10/03 01:08:15;;;;;;;;;;;7.20;99.90;;;;;;5092041;28;19916;-74
2022/10/03 01:10:49;;;;;;;;;;;7.20;99.90;;;;;;5101072;28;19916;-74
2022/10/03 01:13:16;;;;;;;;;;;7.10;99.90;;;;;;5082629;28;20018;-74
2022/10/03 01:16:01;;;;;;;;;;;7.10;99.90;;;;;;5096784;28;19967;-74
2022/10/03 01:18:36;;;;;;;;;;;7.00;99.90;;;;;;5072846;28;19942;-74
2022/10/03 01:21:02;;;;;;;;;;;6.90;99.90;;;;;;5063724;28;19957;-74
2022/10/03 01:23:39;;;;;;;;;;;6.70;99.90;;;;;;5099295;28;20014;-74
2022/10/03 01:26:23;;;;;;;;;;;6.70;99.90;;;;;;5101511;28;19915;-74
2022/10/03 01:31:51;;;;;;;;;;;6.40;99.90;;;;;;5101290;28;19922;-73
2022/10/03 01:34:16;;;;;;;;;;;6.30;99.90;;;;;;5087276;28;19931;-75
2022/10/03 01:37:02;;;;;;;;;;;6.30;99.90;;;;;;5085807;28;19961;-74
2022/10/03 01:39:38;;;;;;;;;;;6.30;99.90;;;;;;5081497;28;19967;-74
2022/10/03 01:42:06;;;;;;;;;;;6.20;99.90;;;;;;5099661;28;19923;-74
2022/10/03 01:44:51;;;;;;;;;;;6.20;99.90;;;;;;5094349;28;19928;-74
2022/10/03 01:47:23;;;;;;;;;;;6.20;99.90;;;;;;5075232;28;19916;-74
2022/10/03 01:50:04;;;;;;;;;;;6.20;99.90;;;;;;5064634;28;19917;-74
2022/10/03 01:52:30;;;;;;;;;;;6.20;99.90;;;;;;5061592;28;19955;-74
2022/10/03 01:54:55;;;;;;;;;;;6.20;99.90;;;;;;5060128;28;19920;-74
2022/10/03 01:57:24;;;;;;;;;;;6.10;99.90;;;;;;5079404;28;19927;-74
2022/10/03 01:59:49;;;;;;;;;;;6.10;99.90;;;;;;5078688;28;20357;-74
2022/10/03 02:02:28;;;;;;;;;;;6.10;99.90;;;;;;5059035;28;19918;-74
2022/10/03 02:04:59;;;;;;;;;;;6.10;99.90;;;;;;5060625;28;19912;-74
2022/10/03 02:07:43;;;;;;;;;;;6.10;99.90;;;;;;5078505;28;19983;-74
2022/10/03 02:10:18;;;;;;;;;;;6.00;99.90;;;;;;5076941;28;20324;-73
2022/10/03 02:13:02;;;;;;;;;;;6.00;99.90;;;;;;5070096;28;19959;-75
2022/10/03 02:15:53;;;;;;;;;;;6.00;99.90;;;;;;5078284;28;19930;-74
2022/10/03 02:18:23;;;;;;;;;;;6.00;99.90;;;;;;5081985;28;19912;-74
2022/10/03 02:20:49;;;;;;;;;;;5.90;99.90;;;;;;5069680;28;19943;-74
2022/10/03 02:23:30;;;;;;;;;;;5.90;99.90;;;;;;5064472;28;20392;-74
2022/10/03 02:26:14;;;;;;;;;;;5.90;99.90;;;;;;5073382;28;20235;-74
2022/10/03 02:28:46;;;;;;;;;;;6.00;99.90;;;;;;5075198;28;20091;-74
2022/10/03 02:31:12;;;;;;;;;;;6.10;99.90;;;;;;5063628;28;19916;-74
2022/10/03 02:33:57;;;;;;;;;;;6.20;99.90;;;;;;5078287;28;20338;-74
2022/10/03 02:36:24;;;;;;;;;;;6.30;99.90;;;;;;5078434;28;20019;-74
2022/10/03 02:39:09;;;;;;;;;;;6.30;99.90;;;;;;5076858;28;19920;-74
2022/10/03 02:41:34;;;;;;;;;;;6.30;99.90;;;;;;5074319;28;19971;-74
2022/10/03 02:44:15;;;;;;;;;;;6.20;99.90;;;;;;5062583;28;19928;-74
2022/10/03 02:46:41;;;;;;;;;;;6.20;99.90;;;;;;5078921;28;19946;-74
2022/10/03 02:49:36;;;;;;;;;;;6.10;99.90;;;;;;5073631;28;19916;-74
2022/10/03 02:52:19;;;;;;;;;;;6.00;99.90;;;;;;5050748;28;19916;-74
2022/10/03 02:54:45;;;;;;;;;;;6.00;99.90;;;;;;5080967;28;19930;-74
2022/10/03 02:57:10;;;;;;;;;;;5.90;99.90;;;;;;5078615;28;19916;-74
2022/10/03 03:00:01;;;;;;;;;;;5.80;99.90;;;;;;5069819;28;20279;-74
2022/10/03 03:02:46;;;;;;;;;;;5.80;99.90;;;;;;5065891;28;19927;-75
2022/10/03 03:05:20;;;;;;;;;;;5.80;99.90;;;;;;5075395;28;19961;-73
2022/10/03 03:08:10;;;;;;;;;;;5.80;99.90;;;;;;5072726;28;20038;-73
2022/10/03 03:10:45;;;;;;;;;;;5.80;99.90;;;;;;5075063;28;19949;-74
2022/10/03 03:13:24;;;;;;;;;;;5.70;99.90;;;;;;5076884;28;19927;-74
2022/10/03 03:16:04;;;;;;;;;;;5.70;99.90;;;;;;5073933;28;19924;-74
2022/10/03 03:18:33;;;;;;;;;;;5.70;99.90;;;;;;5068855;28;19938;-73
2022/10/03 03:21:08;;;;;;;;;;;5.70;99.90;;;;;;5072756;28;20007;-74
2022/10/03 03:23:54;;;;;;;;;;;5.60;99.90;;;;;;5076673;28;19961;-74
2022/10/03 03:26:26;;;;;;;;;;;5.60;99.90;;;;;;5045273;28;19924;-74
2022/10/03 03:29:10;;;;;;;;;;;5.60;99.90;;;;;;5084084;28;19916;-77
2022/10/03 03:31:45;;;;;;;;;;;5.60;99.90;;;;;;5083849;28;20228;-74
2022/10/03 03:34:28;;;;;;;;;;;5.60;99.90;;;;;;5077629;28;19924;-74
2022/10/03 03:37:03;;;;;;;;;;;5.60;99.90;;;;;;5063641;28;20428;-73
2022/10/03 03:39:48;;;;;;;;;;;5.60;99.90;;;;;;5078945;28;19923;-74
2022/10/03 03:42:13;;;;;;;;;;;5.60;99.90;;;;;;5064854;28;19912;-73
2022/10/03 03:44:39;;;;;;;;;;;5.50;99.90;;;;;;5067374;28;19957;-73
2022/10/03 03:47:16;;;;;;;;;;;5.50;99.90;;;;;;5091115;28;19941;-74
2022/10/03 03:50:01;;;;;;;;;;;5.50;99.90;;;;;;5082916;28;19924;-74
2022/10/03 03:52:29;;;;;;;;;;;5.50;99.90;;;;;;5084841;28;19968;-74
2022/10/03 03:55:14;;;;;;;;;;;5.50;99.90;;;;;;5084686;28;20023;-74
2022/10/03 03:57:55;;;;;;;;;;;5.50;99.90;;;;;;5089783;28;20010;-74
2022/10/03 04:00:36;;;;;;;;;;;5.60;99.90;;;;;;5093588;28;19916;-74
2022/10/03 04:03:22;;;;;;;;;;;5.70;99.90;;;;;;5065185;28;20031;-73
2022/10/03 04:05:49;;;;;;;;;;;5.80;99.90;;;;;;5083320;28;19993;-73
2022/10/03 04:08:17;;;;;;;;;;;5.80;99.90;;;;;;5078643;28;19923;-74
2022/10/03 04:10:48;;;;;;;;;;;5.90;99.90;;;;;;5101758;28;19916;-75
2022/10/03 04:13:20;;;;;;;;;;;5.90;99.90;;;;;;5092757;28;19923;-73
2022/10/03 04:15:59;;;;;;;;;;;5.90;99.90;;;;;;5090658;28;20097;-74
2022/10/03 04:18:58;;;;;;;;;;;5.90;99.90;;;;;;5101295;28;19944;-73
2022/10/03 04:21:42;;;;;;;;;;;5.90;99.90;;;;;;5101969;28;20255;-73
2022/10/03 04:24:31;;;;;;;;;;;6.00;99.90;;;;;;5091561;28;20025;-74
2022/10/03 04:26:58;;;;;;;;;;;6.00;99.90;;;;;;5080866;28;19961;-74
2022/10/03 04:29:27;;;;;;;;;;;6.10;99.90;;;;;;5082691;28;19924;-73
2022/10/03 04:31:54;;;;;;;;;;;6.20;99.90;;;;;;5078282;28;20018;-73
2022/10/03 04:34:38;;;;;;;;;;;6.20;99.90;;;;;;5094909;28;20284;-73
2022/10/03 04:37:04;;;;;;;;;;;6.20;99.90;;;;;;5084841;28;19919;-74
2022/10/03 04:39:35;;;;;;;;;;;6.20;99.90;;;;;;5093948;28;19915;-74
2022/10/03 04:42:13;;;;;;;;;;;6.20;99.90;;;;;;5068971;28;20343;-74
2022/10/03 04:44:58;;;;;;;;;;;6.30;99.90;;;;;;5102352;27;19934;-74
2022/10/03 04:47:26;;;;;;;;;;;6.30;99.90;;;;;;5083028;28;19920;-74
2022/10/03 04:49:59;;;;;;;;;;;6.30;99.90;;;;;;5099272;28;20374;-74
2022/10/03 04:52:40;;;;;;;;;;;6.40;99.90;;;;;;5080002;28;19919;-74
2022/10/03 04:55:19;;;;;;;;;;;6.30;99.90;;;;;;5098628;28;19923;-74
2022/10/03 04:58:03;;;;;;;;;;;6.40;99.90;;;;;;5077342;28;20375;-74
2022/10/03 05:00:47;;;;;;;;;;;6.30;99.90;;;;;;5086127;28;19916;-74
2022/10/03 05:03:21;;;;;;;;;;;6.30;99.90;;;;;;5079993;28;19951;-74
2022/10/03 05:05:51;;;;;;;;;;;6.30;99.90;;;;;;5083805;28;19916;-74
2022/10/03 05:08:16;;;;;;;;;;;6.20;99.90;;;;;;5093210;28;20006;-74
2022/10/03 05:11:06;;;;;;;;;;;6.20;99.90;;;;;;5099559;28;20424;-73
2022/10/03 05:13:44;;;;;;;;;;;6.20;99.90;;;;;;5082457;28;20387;-74
2022/10/03 05:16:09;;;;;;;;;;;6.20;99.90;;;;;;5099429;28;20405;-74
2022/10/03 05:18:38;;;;;;;;;;;6.20;99.90;;;;;;5081190;28;20349;-74
2022/10/03 05:21:19;;;;;;;;;;;6.10;99.90;;;;;;5076827;28;20023;-74
2022/10/03 05:23:44;;;;;;;;;;;6.10;99.90;;;;;;5098767;28;19952;-73
2022/10/03 05:26:14;;;;;;;;;;;6.00;99.90;;;;;;5099295;28;20383;-74
2022/10/03 05:29:15;;;;;;;;;;;6.10;99.90;;;;;;5080613;28;19965;-74
2022/10/03 05:31:43;;;;;;;;;;;6.10;99.90;;;;;;4980662;28;19997;-74
2022/10/03 05:34:08;;;;;;;;;;;6.20;99.90;;;;;;5057424;28;19951;-74
2022/10/03 05:36:34;;;;;;;;;;;6.20;99.90;;;;;;5090984;28;20335;-74
2022/10/03 05:39:18;;;;;;;;;;;6.30;99.90;;;;;;5085069;28;19915;-74
2022/10/03 05:41:54;;;;;;;;;;;6.30;99.90;;;;;;5078887;28;20289;-74
2022/10/03 05:44:27;;;;;;;;;;;6.40;99.90;;;;;;5077527;28;19927;-74
2022/10/03 05:47:06;;;;;;;;;;;6.50;99.90;;;;;;5076024;28;19991;-74
2022/10/03 05:49:31;;;;;;;;;;;6.50;99.90;;;;;;5075148;28;19916;-74
2022/10/03 05:52:01;;;;;;;;;;;6.70;99.90;;;;;;5075411;28;19923;-74
2022/10/03 05:54:41;;;;;;;;;;;6.80;99.90;;;;;;5077455;28;19988;-74
2022/10/03 05:57:13;;;;;;;;;;;6.90;99.90;;;;;;5080543;28;19928;-74
2022/10/03 05:59:58;;;;;;;;;;;7.00;99.90;;;;;;5079748;28;19920;-74
2022/10/03 06:02:23;;;;;;;;;;;7.00;99.90;;;;;;5079401;28;20380;-74
2022/10/03 06:04:52;;;;;;;;;;;7.00;99.90;;;;;;5069006;28;19959;-74
2022/10/03 06:07:25;;;;;;;;;;;7.10;99.90;;;;;;5077657;28;19916;-74
2022/10/03 06:09:51;;;;;;;;;;;7.00;99.90;;;;;;5077592;28;19923;-74
2022/10/03 06:12:16;;;;;;;;;;;7.00;99.90;;;;;;5081028;28;19912;-74
2022/10/03 06:14:48;;;;;;;;;;;7.00;99.90;;;;;;5078736;28;20284;-74
2022/10/03 06:17:32;;;;;;;;;;;7.00;99.90;;;;;;5077337;28;19923;-73
2022/10/03 06:19:57;;;;;;;;;;;7.10;99.90;;;;;;5076472;28;19943;-74
2022/10/03 06:22:41;;;;;;;;;;;7.10;99.90;;;;;;5080153;28;19920;-74
2022/10/03 06:25:14;;;;;;;;;;;7.20;99.90;;;;;;5079059;28;19912;-74
2022/10/03 06:27:49;;;;;;;;;;;7.30;99.90;;;;;;5075343;28;20165;-74
2022/10/03 06:30:15;;;;;;;;;;;7.40;99.90;;;;;;5073579;28;19937;-74
2022/10/03 06:32:59;;;;;;;;;;;7.50;99.90;;;;;;5078327;28;19923;-74
2022/10/03 06:35:43;;;;;;;;;;;7.60;99.90;;;;;;5069193;28;19927;-74
2022/10/03 06:38:09;;;;;;;;;;;7.70;99.90;;;;;;5086035;28;20415;-75
2022/10/03 06:40:43;;;;;;;;;;;7.80;99.90;;;;;;5062526;28;20002;-74
2022/10/03 06:43:12;;;;;;;;;;;7.90;99.90;;;;;;5075743;28;19916;-75
2022/10/03 06:45:56;;;;;;;;;;;8.00;99.90;;;;;;5071361;28;20344;-76
2022/10/03 06:48:27;;;;;;;;;;;8.00;99.90;;;;;;5074280;28;20372;-75
2022/10/03 06:51:05;;;;;;;;;;;8.10;99.90;;;;;;5077286;28;19920;-75
2022/10/03 06:53:50;;;;;;;;;;;8.10;99.90;;;;;;5068846;28;19964;-74
2022/10/03 06:56:37;;;;;;;;;;;8.20;99.90;;;;;;5069355;28;19999;-75
2022/10/03 06:59:04;;;;;;;;;;;8.30;99.90;;;;;;5072419;28;20007;-74
2022/10/03 07:01:49;;;;;;;;;;;8.50;99.90;;;;;;5071630;28;20014;-75
2022/10/03 07:04:31;;;;;;;;;;;8.50;99.90;;;;;;5067271;28;19916;-75
2022/10/03 07:07:04;;;;;;;;;;;8.60;99.90;;;;;;5067815;28;19916;-75
2022/10/03 07:09:35;;;;;;;;;;;8.70;99.90;;;;;;5070797;28;19916;-75
2022/10/03 07:12:10;;;;;;;;;;;8.80;99.90;;;;;;5076726;28;19920;-75
2022/10/03 07:15:04;;;;;;;;;;;8.90;99.90;;;;;;5068328;28;20075;-74
2022/10/03 07:17:48;;;;;;;;;;;9.00;99.90;;;;;;5065045;28;20279;-75
2022/10/03 07:20:23;;;;;;;;;;;9.20;99.90;;;;;;5079001;28;20437;-75
2022/10/03 07:23:05;;;;;;;;;;;9.10;99.90;;;;;;5076433;28;20355;-75
2022/10/03 07:25:51;;;;;;;;;;;9.30;99.90;;;;;;5079440;28;19916;-75
2022/10/03 07:28:17;;;;;;;;;;;9.30;99.90;;;;;;5032214;28;20427;-75
2022/10/03 07:31:01;;;;;;;;;;;9.30;99.90;;;;;;5073019;28;20265;-75
2022/10/03 07:33:26;;;;;;;;;;;9.40;99.90;;;;;;5074020;28;19927;-75
2022/10/03 07:38:57;;;;;;;;;;;9.70;99.90;;;;;;5065024;28;19979;-75
2022/10/03 07:41:23;;;;;;;;;;;9.80;99.90;;;;;;5066859;28;20431;-75
2022/10/03 07:43:58;;;;;;;;;;;9.90;99.90;;;;;;5065119;28;19916;-74
2022/10/03 07:46:26;;;;;;;;;;;10.00;99.90;;;;;;5077094;28;19924;-74
2022/10/03 07:49:01;;;;;;;;;;;10.10;99.90;;;;;;5082611;28;19912;-75
2022/10/03 07:51:32;;;;;;;;;;;10.20;99.90;;;;;;5084472;28;20394;-74
2022/10/03 07:54:16;;;;;;;;;;;10.50;99.90;;;;;;5078961;28;20429;-74
2022/10/03 07:56:54;;;;;;;;;;;10.70;99.90;;;;;;5073369;28;20011;-75
2022/10/03 07:59:39;;;;;;;;;;;10.70;99.90;;;;;;5070117;28;19917;-74
2022/10/03 08:02:25;;;;;;;;;;;10.80;99.90;;;;;;5068314;28;20627;-75
2022/10/03 08:05:06;;;;;;;;;;;10.90;99.90;;;;;;5069350;28;20018;-74
2022/10/03 08:07:50;;;;;;;;;;;11.00;99.90;;;;;;5063985;28;19936;-75
2022/10/03 08:10:22;;;;;;;;;;;11.10;99.90;;;;;;5070488;28;20029;-75
2022/10/03 08:13:06;;;;;;;;;;;11.30;99.90;;;;;;5070007;28;19916;-75
2022/10/03 08:15:34;;;;;;;;;;;11.40;99.90;;;;;;5074398;28;19924;-75
2022/10/03 08:18:00;;;;;;;;;;;11.80;99.90;;;;;;5068908;28;19916;-75
2022/10/03 08:20:35;;;;;;;;;;;12.00;99.90;;;;;;5073134;28;19915;-75
2022/10/03 08:23:00;;;;;;;;;;;12.30;99.90;;;;;;5064741;28;19983;-75
2022/10/03 08:25:26;;;;;;;;;;;12.50;99.90;;;;;;5061426;28;20372;-75
2022/10/03 08:27:54;;;;;;;;;;;12.60;99.90;;;;;;5061482;28;20154;-74
2022/10/03 08:30:27;;;;;;;;;;;12.60;99.90;;;;;;5064928;28;19923;-74
2022/10/03 08:32:56;;;;;;;;;;;12.50;99.90;;;;;;5073796;28;19976;-75
2022/10/03 08:35:22;;;;;;;;;;;12.60;99.90;;;;;;5065789;28;19924;-74
2022/10/03 08:38:06;;;;;;;;;;;12.50;99.90;;;;;;5068826;28;20006;-74
2022/10/03 08:40:31;;;;;;;;;;;12.50;99.90;;;;;;5077296;28;19928;-74
2022/10/03 08:43:03;;;;;;;;;;;12.40;99.90;;;;;;5064808;28;19916;-74
2022/10/03 08:45:34;;;;;;;;;;;12.50;99.90;;;;;;5068479;28;20040;-74
2022/10/03 08:48:18;;;;;;;;;;;12.60;99.90;;;;;;5084657;28;19928;-74
2022/10/03 08:51:07;;;;;;;;;;;12.60;99.90;;;;;;5084625;28;19918;-74
2022/10/03 08:53:52;;;;;;;;;;;12.90;99.90;;;;;;5038076;28;19999;-74
2022/10/03 08:56:33;;;;;;;;;;;13.00;99.90;;;;;;5066718;28;20434;-74
2022/10/03 08:58:59;;;;;;;;;;;13.10;99.90;;;;;;5081372;28;19916;-74
2022/10/03 09:01:33;;;;;;;;;;;13.40;99.90;;;;;;5086297;28;19938;-74
2022/10/03 09:03:58;;;;;;;;;;;13.40;99.90;;;;;;5084810;28;19916;-74
2022/10/03 09:06:43;;;;;;;;;;;13.50;99.90;;;;;;5081608;28;19981;-74
2022/10/03 09:09:11;;;;;;;;;;;13.50;99.90;;;;;;5075001;28;20012;-74
2022/10/03 09:11:43;;;;;;;;;;;13.70;99.90;;;;;;5078348;28;20304;-74
2022/10/03 09:14:24;;;;;;;;;;;13.90;99.90;;;;;;5076219;28;19924;-74
2022/10/03 09:17:03;;;;;;;;;;;14.10;99.90;;;;;;5080346;28;19916;-74
2022/10/03 09:19:32;;;;;;;;;;;14.20;99.90;;;;;;5073502;28;19916;-74
2022/10/03 09:21:57;;;;;;;;;;;14.20;99.90;;;;;;5075461;28;19974;-74
2022/10/03 09:24:22;;;;;;;;;;;14.20;99.90;;;;;;5067391;28;20003;-74
2022/10/03 09:27:07;;;;;;;;;;;14.40;99.90;;;;;;5067859;28;19935;-74
2022/10/03 09:29:32;;;;;;;;;;;14.60;99.90;;;;;;5084354;28;20361;-74
2022/10/03 09:32:18;;;;;;;;;;;14.70;99.90;;;;;;5081320;28;19980;-75
2022/10/03 09:35:02;;;;;;;;;;;14.60;99.90;;;;;;5069775;28;20363;-75
2022/10/03 09:37:36;;;;;;;;;;;14.40;99.90;;;;;;5078934;28;19911;-74
2022/10/03 09:40:17;;;;;;;;;;;14.30;99.90;;;;;;5081021;28;19916;-75
2022/10/03 09:42:49;;;;;;;;;;;14.20;99.90;;;;;;5076809;28;19908;-75
2022/10/03 09:45:23;;;;;;;;;;;14.20;99.90;;;;;;5078079;28;19931;-75
2022/10/03 09:48:08;;;;;;;;;;;14.30;99.90;;;;;;5072419;28;19912;-74
2022/10/03 09:50:35;;;;;;;;;;;14.60;99.90;;;;;;5079466;28;19919;-74
2022/10/03 09:53:12;;;;;;;;;;;14.80;99.90;;;;;;5072344;28;19935;-74
2022/10/03 09:55:44;;;;;;;;;;;15.10;99.90;;;;;;5076587;28;20419;-75
2022/10/03 09:58:29;;;;;;;;;;;15.20;99.90;;;;;;5080001;28;19969;-74
2022/10/03 10:01:09;;;;;;;;;;;15.50;99.90;;;;;;5078399;28;19912;-74
2022/10/03 10:03:44;;;;;;;;;;;15.90;99.90;;;;;;5071185;28;20265;-74
2022/10/03 10:06:26;;;;;;;;;;;16.40;99.90;;;;;;5075107;28;19963;-75
2022/10/03 10:09:09;;;;;;;;;;;17.00;99.90;;;;;;5067513;28;20387;-75
2022/10/03 10:11:50;;;;;;;;;;;17.50;99.90;;;;;;5066777;28;19917;-75
2022/10/03 10:14:18;;;;;;;;;;;18.10;99.90;;;;;;5063777;28;20019;-74
2022/10/03 10:16:50;;;;;;;;;;;19.00;99.90;;;;;;5070203;28;19965;-75
2022/10/03 10:19:21;;;;;;;;;;;20.30;99.90;;;;;;5073039;28;19911;-75
2022/10/03 10:22:05;;;;;;;;;;;20.80;99.20;;;;;;5070794;28;20295;-75
2022/10/03 10:24:50;;;;;;;;;;;20.90;98.90;;;;;;5077760;28;19923;-75
2022/10/03 10:27:34;;;;;;;;;;;20.70;97.90;;;;;;5064667;28;19919;-75
2022/10/03 10:30:08;;;;;;;;;;;20.90;96.30;;;;;;5080347;28;19908;-75
2022/10/03 10:32:39;;;;;;;;;;;21.20;95.50;;;;;;5065547;28;20375;-75
2022/10/03 10:35:20;;;;;;;;;;;21.80;95.40;;;;;;5064353;28;20019;-75
2022/10/03 10:38:03;;;;;;;;;;;21.80;91.90;;;;;;5072225;28;19909;-75
2022/10/03 10:40:41;;;;;;;;;;;22.10;91.40;;;;;;5074931;28;20095;-75
2022/10/03 10:43:07;;;;;;;;;;;23.40;88.50;;;;;;5074243;28;19912;-75
2022/10/03 10:45:34;;;;;;;;;;;24.80;80.90;;;;;;5082817;27;20006;-75
2022/10/03 10:48:00;;;;;;;;;;;26.00;78.10;;;;;;5074999;28;19912;-75
2022/10/03 10:50:44;;;;;;;;;;;26.90;78.70;;;;;;5064413;28;19918;-76
2022/10/03 10:53:19;;;;;;;;;;;27.40;71.10;;;;;;5067570;28;20029;-75
2022/10/03 10:55:44;;;;;;;;;;;26.70;70.60;;;;;;5063222;28;20003;-75
2022/10/03 10:58:13;;;;;;;;;;;26.50;71.70;;;;;;5055671;28;20153;-75
2022/10/03 11:01:17;;;;;;;;;;;26.60;70.30;;;;;;5056769;28;19964;-75
2022/10/03 11:03:52;;;;;;;;;;;26.20;71.10;;;;;;5069105;28;20446;-75
2022/10/03 11:06:29;;;;;;;;;;;26.30;72.30;;;;;;5065611;28;20043;-75
2022/10/03 11:09:04;;;;;;;;;;;26.50;67.60;;;;;;5064175;28;20023;-75
2022/10/03 11:11:30;;;;;;;;;;;27.40;67.20;;;;;;5064749;28;19912;-75
2022/10/03 11:14:14;;;;;;;;;;;27.80;64.10;;;;;;5069959;28;20454;-75
2022/10/03 11:16:46;;;;;;;;;;;27.10;65.60;;;;;;5062576;28;19962;-75
2022/10/03 11:19:15;;;;;;;;;;;26.00;65.00;;;;;;5063579;28;20826;-75
2022/10/03 11:21:49;;;;;;;;;;;25.50;66.10;;;;;;5062518;28;19971;-76
2022/10/03 11:24:29;;;;;;;;;;;24.30;68.10;;;;;;5069352;28;19919;-75
2022/10/03 11:26:55;;;;;;;;;;;23.80;70.70;;;;;;5069274;28;19923;-75
2022/10/03 11:29:33;;;;;;;;;;;23.90;78.10;;;;;;5070085;28;19916;-75
2022/10/03 11:32:13;;;;;;;;;;;24.00;71.10;;;;;;5072396;28;19917;-75
2022/10/03 11:34:48;;;;;;;;;;;24.00;73.20;;;;;;5068221;28;19924;-75
2022/10/03 11:37:19;;;;;;;;;;;24.20;69.40;;;;;;5061853;28;20361;-75
2022/10/03 11:39:54;;;;;;;;;;;23.60;66.20;;;;;;5071332;28;19919;-75
2022/10/03 11:42:20;;;;;;;;;;;22.90;68.60;;;;;;5074004;28;19911;-75
2022/10/03 11:44:54;;;;;;;;;;;22.10;69.30;;;;;;5067152;28;20444;-75
2022/10/03 11:47:20;;;;;;;;;;;21.60;74.70;;;;;;5070159;28;20276;-75
2022/10/03 11:49:48;;;;;;;;;;;21.20;75.50;;;;;;5075923;28;20355;-75
2022/10/03 11:52:32;;;;;;;;;;;20.80;75.80;;;;;;5063651;28;20405;-75
2022/10/03 11:55:12;;;;;;;;;;;20.70;78.10;;;;;;5068670;28;20154;-76
2022/10/03 11:57:38;;;;;;;;;;;20.80;77.00;;;;;;5070408;28;19931;-75
2022/10/03 12:00:09;;;;;;;;;;;21.30;75.30;;;;;;5074618;28;19912;-75
2022/10/03 12:02:52;;;;;;;;;;;21.80;78.60;;;;;;5068936;28;20459;-75
2022/10/03 12:05:23;;;;;;;;;;;22.40;74.60;;;;;;5073716;28;19920;-75
2022/10/03 12:10:38;;;;;;;;;;;22.10;76.80;;;;;;5072035;28;19919;-75
2022/10/03 12:13:07;;;;;;;;;;;22.30;75.00;;;;;;5070162;28;19912;-75
2022/10/03 12:15:33;;;;;;;;;;;22.30;75.40;;;;;;5072098;28;19997;-75
2022/10/03 12:18:17;;;;;;;;;;;22.40;77.40;;;;;;5069546;28;20564;-75
2022/10/03 12:21:01;;;;;;;;;;;22.80;78.20;;;;;;5070007;28;19919;-75
2022/10/03 12:23:45;;;;;;;;;;;23.10;73.40;;;;;;5067804;28;19923;-75
2022/10/03 12:26:16;;;;;;;;;;;23.20;73.00;;;;;;5087127;28;19977;-75
2022/10/03 12:28:44;;;;;;;;;;;23.00;71.30;;;;;;5075638;28;19924;-75
2022/10/03 12:31:23;;;;;;;;;;;22.50;69.80;;;;;;5071703;28;19920;-75
2022/10/03 12:33:48;;;;;;;;;;;22.40;73.20;;;;;;5078044;28;19934;-75
2022/10/03 12:36:15;;;;;;;;;;;22.20;72.20;;;;;;5066902;28;20248;-75
2022/10/03 12:38:55;;;;;;;;;;;22.20;75.80;;;;;;5076659;28;19919;-75
2022/10/03 12:41:20;;;;;;;;;;;22.30;74.40;;;;;;5067082;28;19919;-75
2022/10/03 12:43:49;;;;;;;;;;;22.40;70.90;;;;;;5063408;28;19916;-75
2022/10/03 12:46:19;;;;;;;;;;;22.20;71.10;;;;;;5062070;28;19936;-75
2022/10/03 12:48:50;;;;;;;;;;;22.00;72.00;;;;;;5065695;28;19919;-75
2022/10/03 12:51:34;;;;;;;;;;;21.70;76.30;;;;;;5068445;28;20379;-75
2022/10/03 12:54:06;;;;;;;;;;;21.60;73.90;;;;;;5062322;28;20449;-75
2022/10/03 12:56:38;;;;;;;;;;;21.20;75.80;;;;;;5069392;28;19947;-75
2022/10/03 12:59:09;;;;;;;;;;;20.70;78.30;;;;;;5066820;28;20110;-75
2022/10/03 13:01:54;;;;;;;;;;;20.20;80.30;;;;;;5065054;28;20037;-74
2022/10/03 13:04:28;;;;;;;;;;;19.80;83.00;;;;;;5074492;28;19912;-75
2022/10/03 13:07:14;;;;;;;;;;;19.50;85.00;;;;;;5065449;28;20255;-75
2022/10/03 13:09:55;;;;;;;;;;;19.30;89.60;;;;;;5063602;28;19912;-75
2022/10/03 13:12:35;;;;;;;;;;;19.30;90.80;;;;;;5063429;28;20304;-75
2022/10/03 13:15:19;;;;;;;;;;;19.20;86.90;;;;;;5078428;28;19973;-75
2022/10/03 13:17:52;;;;;;;;;;;19.20;91.10;;;;;;5077187;28;20426;-74
2022/10/03 13:20:17;;;;;;;;;;;19.40;90.40;;;;;;5075493;28;19912;-75
2022/10/03 13:22:45;;;;;;;;;;;19.60;87.80;;;;;;5075875;28;19924;-75
2022/10/03 13:25:17;;;;;;;;;;;19.90;87.00;;;;;;5075586;28;19923;-74
2022/10/03 13:27:45;;;;;;;;;;;20.20;89.80;;;;;;5073966;28;19984;-75
2022/10/03 13:30:14;;;;;;;;;;;20.20;81.70;;;;;;5074871;28;19942;-75
2022/10/03 13:32:44;;;;;;;;;;;20.30;86.30;;;;;;5070080;28;20506;-75
2022/10/03 13:38:06;;;;;;;;;;;20.50;82.00;;;;;;5079426;28;19961;-74
2022/10/03 13:40:36;;;;;;;;;;;20.60;81.70;;;;;;5073340;28;19916;-75
2022/10/03 13:43:07;;;;;;;;;;;20.50;83.40;;;;;;5080814;28;20000;-75
2022/10/03 13:45:33;;;;;;;;;;;20.40;81.80;;;;;;5074732;28;19924;-74
2022/10/03 13:48:01;;;;;;;;;;;20.30;82.90;;;;;;5074888;28;19981;-75
2022/10/03 13:50:30;;;;;;;;;;;20.20;77.80;;;;;;5063944;28;20379;-75
2022/10/03 13:53:15;;;;;;;;;;;20.00;77.30;;;;;;5064658;28;20022;-75
2022/10/03 13:55:46;;;;;;;;;;;19.80;79.20;;;;;;5079633;28;20020;-75
2022/10/03 13:58:12;;;;;;;;;;;19.70;79.20;;;;;;5061726;28;19931;-75
2022/10/03 14:01:02;;;;;;;;;;;19.60;79.30;;;;;;5063490;28;19912;-76
2022/10/03 14:03:33;;;;;;;;;;;19.50;81.60;;;;;;5062099;28;19912;-76
2022/10/03 14:06:05;;;;;;;;;;;19.20;84.20;;;;;;5059124;28;19999;-75
2022/10/03 14:08:36;;;;;;;;;;;19.20;82.90;;;;;;5062051;28;19913;-75
2022/10/03 14:11:14;;;;;;;;;;;19.20;85.50;;;;;;5075863;28;19908;-75
2022/10/03 14:13:51;;;;;;;;;;;19.10;83.10;;;;;;5069279;28;21984;-75
2022/10/03 14:16:27;;;;;;;;;;;19.10;83.90;;;;;;4710268;28;9999906;-74
2022/10/03 14:18:59;;;;;;;;;;;19.20;86.40;;;;;;5068081;28;19920;-75
2022/10/03 14:21:34;;;;;;;;;;;19.10;86.20;;;;;;5077357;28;19988;-74
2022/10/03 14:24:05;;;;;;;;;;;19.10;85.00;;;;;;5062096;28;20360;-74
2022/10/03 14:26:36;;;;;;;;;;;19.20;83.30;;;;;;5078984;28;20014;-74
2022/10/03 14:29:04;;;;;;;;;;;19.30;88.20;;;;;;5078078;28;19978;-74
2022/10/03 14:31:37;;;;;;;;;;;19.30;88.00;;;;;;5071720;28;19960;-75
2022/10/03 14:34:35;;;;;;;;;;;19.40;85.60;;;;;;5072501;28;20039;-74
2022/10/03 14:37:14;;;;;;;;;;;19.40;87.50;;;;;;5037233;28;19938;-75
2022/10/03 14:39:50;;;;;;;;;;;19.30;88.10;;;;;;5071530;28;19922;-75
2022/10/03 14:42:27;;;;;;;;;;;19.20;84.50;;;;;;5069605;28;19916;-74
2022/10/03 14:45:07;;;;;;;;;;;19.10;84.70;;;;;;5062308;28;19920;-75
2022/10/03 14:47:37;;;;;;;;;;;19.00;87.90;;;;;;5064284;28;20271;-75
2022/10/03 14:50:04;;;;;;;;;;;18.80;83.40;;;;;;5061241;28;20077;-74
2022/10/03 14:52:35;;;;;;;;;;;18.70;88.60;;;;;;5060325;28;19916;-75
2022/10/03 14:55:06;;;;;;;;;;;18.60;86.40;;;;;;5060908;28;19920;-74
2022/10/03 14:57:35;;;;;;;;;;;18.50;86.00;;;;;;5062730;28;20347;-75
2022/10/03 15:00:01;;;;;;;;;;;18.30;88.20;;;;;;5063294;28;19976;-75
2022/10/03 15:02:35;;;;;;;;;;;18.20;88.00;;;;;;5052807;28;19969;-75
2022/10/03 15:05:13;;;;;;;;;;;18.10;90.20;;;;;;5059574;28;19918;-74
2022/10/03 15:07:41;;;;;;;;;;;18.10;90.00;;;;;;5056676;28;20022;-75
2022/10/03 15:10:10;;;;;;;;;;;18.00;89.00;;;;;;5059191;28;19912;-75
2022/10/03 15:12:37;;;;;;;;;;;18.00;90.20;;;;;;5068307;28;20428;-75
2022/10/03 15:15:18;;;;;;;;;;;18.00;91.50;;;;;;5065147;28;20016;-74
2022/10/03 15:17:46;;;;;;;;;;;18.00;92.00;;;;;;5059287;28;20363;-75
2022/10/03 15:20:15;;;;;;;;;;;18.00;92.30;;;;;;5061168;28;20016;-75